Warsaw/Okęcie Frédéric Chopin Airport

Airport
ICAO code: 
EPWA
IATA Code: 
WAW
Summary
ICAO Region: 
EUR
Territory: 
Location: 
Okęcie, Warsaw, Masovia
Serving: 
Warsaw
Elevation: 
361 ft
Coordinates: 
Aerial View: 
52° 9' 54" N, 20° 58' 6" E
Metar
Observation
EPWA 051800Z 08006KT 5000 -RASN BR BKN004 M00/M00 Q1007 TEMPO 4000
Station
Warszawa-Okecie
Date/Time
2021-12-05 18:00:00
Wind direction
80°
Wind speed
06 kts
Lowest cloud amount
broken clouds
Temperature
-0°C
Dew point
-0°C
Humidity
100%
QNH
1007 hPa
Weather condition
n/a

International airport serving capital city of Poland.

Climatology

Humid Continental climate (Köppen climate classification Dfb) - Variable weather patterns and a large seasonal temperature variance. Summers are often warm and humid with frequent thunderstorms and winters can be very cold with frequent snowfall and persistent snow cover.

Runways

Designator Length Width Surface Rops
11/29 2800 50 CON Yes/Yes
15/33 3690 60 CON Yes/Yes
Airport map: 
Aerial View: 

Accidents and Serious Incidents at or in the vicinity of EPWA

SKYbrary Partners:

Safety knowledge contributed by: